Time;durP1;ratioP1;P1;durP2;ratioP2;P2;SDS_P1;SDS_P2;PMS_P1;PMS_P2;Temp;Humidity;BMP_temperature;BMP_pressure;BME280_temperature;BME280_humidity;BME280_pressure;Samples;Min_cycle;Max_cycle;Signal;HPM_P1;HPM_P2
2022/02/24 00:00:52;;;;;;;;;;;;;;;16.45;61.09;101456.84;5048651;28;1959;-33
2022/02/24 00:03:19;;;;;;;;;;;;;;;16.42;62.60;101451.72;5046521;28;1828;-32
2022/02/24 00:05:45;;;;;;;;;;;;;;;16.40;61.44;101443.81;5047858;28;1680;-33
2022/02/24 00:08:12;;;;;;;;;;;;;;;16.41;62.24;101445.53;5048505;28;1617;-33
2022/02/24 00:10:38;;;;;;;;;;;;;;;16.42;61.87;101446.38;5048806;28;1898;-34
2022/02/24 00:13:05;;;;;;;;;;;;;;;16.39;61.92;101452.75;5048675;28;1920;-33
2022/02/24 00:15:33;;;;;;;;;;;;;;;16.39;61.53;101454.59;5048645;28;2408;-33
2022/02/24 00:17:59;;;;;;;;;;;;;;;16.38;62.23;101453.75;5052447;28;1623;-32
2022/02/24 00:20:26;;;;;;;;;;;;;;;16.40;62.54;101473.19;5052280;28;1881;-33
2022/02/24 00:22:52;;;;;;;;;;;;;;;16.39;62.85;101460.78;5052396;28;1584;-33
2022/02/24 00:25:19;;;;;;;;;;;;;;;16.40;62.91;101461.66;5052327;28;2013;-33
2022/02/24 00:27:46;;;;;;;;;;;;;;;16.40;62.69;101469.66;5055265;28;1704;-33
2022/02/24 00:30:12;;;;;;;;;;;;;;;16.42;62.54;101470.41;5056592;28;1073;-33
2022/02/24 00:32:40;;;;;;;;;;;;;;;16.39;62.57;101457.25;5055065;28;1969;-33
2022/02/24 00:35:07;;;;;;;;;;;;;;;16.40;62.54;101465.16;5056374;28;1948;-32
2022/02/24 00:37:34;;;;;;;;;;;;;;;16.38;61.87;101452.88;5056006;28;1694;-32
2022/02/24 00:40:00;;;;;;;;;;;;;;;16.39;61.73;101452.75;5056133;28;1571;-32
2022/02/24 00:42:27;;;;;;;;;;;;;;;16.36;61.52;101455.66;5055841;28;1734;-32
2022/02/24 00:44:53;;;;;;;;;;;;;;;16.37;62.04;101464.50;5056407;28;1092;-32
2022/02/24 00:47:19;;;;;;;;;;;;;;;16.38;61.96;101450.22;5055998;28;1763;-32
2022/02/24 00:49:47;;;;;;;;;;;;;;;16.36;62.78;101457.47;5055779;28;1805;-32
2022/02/24 00:52:14;;;;;;;;;;;;;;;16.33;62.60;101453.16;5055606;28;1909;-32
2022/02/24 00:54:40;;;;;;;;;;;;;;;16.35;62.17;101459.25;5055634;28;2025;-32
2022/02/24 00:57:07;;;;;;;;;;;;;;;16.32;62.71;101467.50;5056111;28;1951;-33
2022/02/24 00:59:33;;;;;;;;;;;;;;;16.34;62.03;101454.91;5056253;28;1135;-32
2022/02/24 01:02:00;;;;;;;;;;;;;;;16.32;62.80;101463.97;5055810;28;1957;-32
2022/02/24 01:04:26;;;;;;;;;;;;;;;16.32;62.91;101450.63;5055380;28;2032;-32
2022/02/24 01:06:54;;;;;;;;;;;;;;;16.34;62.78;101467.41;5055818;28;1792;-32
2022/02/24 01:09:21;;;;;;;;;;;;;;;16.33;62.53;101469.19;5056313;28;1012;-33
2022/02/24 01:11:47;;;;;;;;;;;;;;;16.33;62.54;101460.34;5055290;28;1975;-33
2022/02/24 01:14:13;;;;;;;;;;;;;;;16.35;62.45;101466.44;5055845;28;1935;-33
2022/02/24 01:16:40;;;;;;;;;;;;;;;16.36;61.84;101469.00;5055522;28;1686;-32
2022/02/24 01:19:06;;;;;;;;;;;;;;;16.33;61.87;101465.66;5055213;28;1741;-33
2022/02/24 01:21:34;;;;;;;;;;;;;;;16.33;61.49;101468.34;5055109;28;1745;-32
2022/02/24 01:24:02;;;;;;;;;;;;;;;16.34;62.14;101486.94;5055484;28;1782;-32
2022/02/24 01:26:29;;;;;;;;;;;;;;;16.33;62.78;101479.84;5050674;28;1654;-33
2022/02/24 01:28:55;;;;;;;;;;;;;;;16.36;61.78;101489.50;5055023;28;1083;-32
2022/02/24 01:31:22;;;;;;;;;;;;;;;16.34;62.26;101496.75;5055388;28;2001;-32
2022/02/24 01:33:48;;;;;;;;;;;;;;;16.32;61.45;101496.84;5054816;28;1948;-32
2022/02/24 01:36:14;;;;;;;;;;;;;;;16.32;62.11;101504.00;5055276;28;1867;-33
2022/02/24 01:38:41;;;;;;;;;;;;;;;16.31;62.66;101519.16;5055210;28;1861;-32
2022/02/24 01:41:09;;;;;;;;;;;;;;;16.34;61.34;101528.78;5055093;28;1593;-32
2022/02/24 01:43:35;;;;;;;;;;;;;;;16.34;61.28;101534.97;5054734;28;1100;-32
2022/02/24 01:46:02;;;;;;;;;;;;;;;16.30;62.20;101536.97;5054950;28;1738;-32
2022/02/24 01:48:28;;;;;;;;;;;;;;;16.31;62.34;101535.16;5054907;28;1608;-32
2022/02/24 01:50:55;;;;;;;;;;;;;;;16.32;61.93;101549.38;5054865;28;1828;-33
2022/02/24 01:53:21;;;;;;;;;;;;;;;16.30;61.60;101528.13;5055359;28;1906;-32
2022/02/24 01:55:48;;;;;;;;;;;;;;;16.28;61.67;101538.88;5054959;28;1107;-32
2022/02/24 01:58:18;;;;;;;;;;;;;;;16.29;62.33;101532.63;5054821;28;1828;-33
2022/02/24 02:00:44;;;;;;;;;;;;;;;16.30;62.59;101538.78;5054822;28;2093;-32
2022/02/24 02:03:11;;;;;;;;;;;;;;;16.31;61.87;101556.50;5054419;28;1871;-33
2022/02/24 02:05:37;;;;;;;;;;;;;;;16.28;62.65;101552.22;5055030;28;1071;-32
2022/02/24 02:08:05;;;;;;;;;;;;;;;16.32;61.50;101557.38;5054718;28;2013;-32
2022/02/24 02:10:31;;;;;;;;;;;;;;;16.27;61.60;101555.88;5054375;28;1804;-33
2022/02/24 02:12:58;;;;;;;;;;;;;;;16.28;62.88;101551.38;5054539;28;2054;-32
2022/02/24 02:15:26;;;;;;;;;;;;;;;16.29;62.72;101558.41;5054425;28;1752;-33
2022/02/24 02:17:52;;;;;;;;;;;;;;;16.26;62.68;101559.47;5054521;28;994;-33
2022/02/24 02:20:20;;;;;;;;;;;;;;;16.29;61.38;101563.75;5054295;28;1960;-32
2022/02/24 02:22:49;;;;;;;;;;;;;;;16.25;61.78;101552.44;5054227;28;2012;-33
2022/02/24 02:25:19;;;;;;;;;;;;;;;16.24;62.63;101564.06;5048817;28;2025;-32
2022/02/24 02:27:46;;;;;;;;;;;;;;;16.26;61.42;101580.84;5054681;28;1801;-32
2022/02/24 02:30:13;;;;;;;;;;;;;;;16.29;61.47;101582.44;5054630;28;1068;-32
2022/02/24 02:32:39;;;;;;;;;;;;;;;16.27;61.34;101576.34;5054171;28;1906;-32
2022/02/24 02:35:06;;;;;;;;;;;;;;;16.26;62.71;101580.84;5054114;28;2076;-32
2022/02/24 02:37:33;;;;;;;;;;;;;;;16.26;62.10;101585.31;5054040;28;1780;-32
2022/02/24 02:40:01;;;;;;;;;;;;;;;16.25;62.26;101587.16;5053518;28;1437;-32
2022/02/24 02:42:27;;;;;;;;;;;;;;;16.27;62.38;101592.34;5053934;28;1752;-32
2022/02/24 02:44:54;;;;;;;;;;;;;;;16.26;62.59;101596.84;5054416;28;1059;-32
2022/02/24 02:47:20;;;;;;;;;;;;;;;16.27;61.93;101605.69;5053563;28;1699;-33
2022/02/24 02:49:47;;;;;;;;;;;;;;;16.27;62.20;101606.59;5054011;28;2005;-32
2022/02/24 02:52:13;;;;;;;;;;;;;;;16.27;61.45;101611.91;5054369;28;1906;-32
2022/02/24 02:54:39;;;;;;;;;;;;;;;16.26;61.35;101607.53;5053776;28;1821;-32
2022/02/24 02:57:07;;;;;;;;;;;;;;;16.24;62.65;101609.44;5053697;28;1887;-32
2022/02/24 02:59:34;;;;;;;;;;;;;;;16.26;62.75;101618.19;5045760;28;997;-32
2022/02/24 03:02:00;;;;;;;;;;;;;;;16.24;62.47;101611.25;5152885;22;3590;-33
2022/02/24 03:04:27;;;;;;;;;;;;;;;16.26;61.87;101617.34;5053363;28;1721;-33
2022/02/24 03:06:53;;;;;;;;;;;;;;;16.26;61.34;101615.53;5053351;28;1746;-33
2022/02/24 03:09:20;;;;;;;;;;;;;;;16.23;61.16;101609.53;5054080;28;1082;-33
2022/02/24 03:11:46;;;;;;;;;;;;;;;16.24;62.17;101620.09;5052699;28;1910;-33
2022/02/24 03:14:14;;;;;;;;;;;;;;;16.22;62.18;101626.50;5052959;28;1733;-33
2022/02/24 03:16:40;;;;;;;;;;;;;;;16.22;62.59;101638.03;5043821;28;1814;-33
2022/02/24 03:19:08;;;;;;;;;;;;;;;16.23;62.44;101634.38;5053140;28;1744;-33
2022/02/24 03:21:34;;;;;;;;;;;;;;;16.22;62.24;101630.03;5044299;28;1605;-33
2022/02/24 03:24:01;;;;;;;;;;;;;;;16.20;62.14;101623.94;5052822;28;2028;-33
2022/02/24 03:26:27;;;;;;;;;;;;;;;16.20;62.59;101631.09;5052960;28;1666;-33
2022/02/24 03:28:54;;;;;;;;;;;;;;;16.23;61.54;101629.06;5053656;28;1031;-33
2022/02/24 03:31:22;;;;;;;;;;;;;;;16.26;61.78;101638.69;5052736;28;1837;-33
2022/02/24 03:33:48;;;;;;;;;;;;;;;16.20;62.54;101634.59;5052821;28;1984;-33
2022/02/24 03:36:14;;;;;;;;;;;;;;;16.21;62.09;101620.28;5052685;28;1424;-33
2022/02/24 03:38:41;;;;;;;;;;;;;;;16.21;61.70;101620.28;5053312;28;1668;-33
2022/02/24 03:41:07;;;;;;;;;;;;;;;16.18;62.43;101620.50;5052790;28;1429;-34
2022/02/24 03:43:34;;;;;;;;;;;;;;;16.22;62.81;101621.16;5053157;28;1011;-33
2022/02/24 03:46:00;;;;;;;;;;;;;;;16.21;61.86;101609.59;5052891;28;1843;-33
2022/02/24 03:48:28;;;;;;;;;;;;;;;16.22;62.59;101638.03;5053143;28;1685;-33
2022/02/24 03:50:54;;;;;;;;;;;;;;;16.20;61.94;101625.75;5053906;28;1601;-33
2022/02/24 03:53:21;;;;;;;;;;;;;;;16.18;62.20;101633.84;5057515;28;1971;-32
2022/02/24 03:55:47;;;;;;;;;;;;;;;16.20;61.79;101631.94;5056907;28;1866;-33
2022/02/24 03:58:14;;;;;;;;;;;;;;;16.20;62.80;101642.59;5056594;28;1715;-33
2022/02/24 04:00:40;;;;;;;;;;;;;;;16.19;61.23;101643.53;5056521;28;1706;-33
2022/02/24 04:03:07;;;;;;;;;;;;;;;16.21;61.59;101646.97;5054560;28;1560;-33
2022/02/24 04:05:34;;;;;;;;;;;;;;;16.20;62.28;101629.25;5057587;28;994;-33
2022/02/24 04:08:01;;;;;;;;;;;;;;;16.18;61.87;101631.16;5056827;28;1880;-33
2022/02/24 04:10:27;;;;;;;;;;;;;;;16.19;62.58;101627.53;5056632;28;1436;-33
2022/02/24 04:12:54;;;;;;;;;;;;;;;16.17;62.74;101629.44;5056606;28;1910;-33
2022/02/24 04:15:20;;;;;;;;;;;;;;;16.18;62.39;101631.16;5056989;28;1150;-33
2022/02/24 04:17:47;;;;;;;;;;;;;;;16.17;61.92;101634.78;5055922;28;1639;-32
2022/02/24 04:20:13;;;;;;;;;;;;;;;16.18;62.33;101641.84;5056371;28;1959;-33
2022/02/24 04:22:41;;;;;;;;;;;;;;;16.17;62.20;101658.78;5056954;28;1956;-33
2022/02/24 04:25:08;;;;;;;;;;;;;;;16.17;62.57;101649.94;5056427;28;1405;-32
2022/02/24 04:27:34;;;;;;;;;;;;;;;16.16;61.69;101654.44;5056863;28;1701;-33
2022/02/24 04:30:01;;;;;;;;;;;;;;;16.18;62.28;101663.19;5057183;28;1069;-32
2022/02/24 04:32:27;;;;;;;;;;;;;;;16.15;62.64;101665.19;5056233;28;2006;-33
2022/02/24 04:34:54;;;;;;;;;;;;;;;16.19;62.62;101672.91;5056232;28;1624;-32
2022/02/24 04:37:20;;;;;;;;;;;;;;;16.14;62.41;101672.34;5056067;28;1549;-33
2022/02/24 04:39:48;;;;;;;;;;;;;;;16.15;62.55;101684.72;5056314;28;1479;-33
2022/02/24 04:42:15;;;;;;;;;;;;;;;16.16;62.37;101673.09;5056241;28;1696;-33
2022/02/24 04:44:41;;;;;;;;;;;;;;;16.11;62.04;101669.84;5056733;28;1082;-33
2022/02/24 04:47:08;;;;;;;;;;;;;;;16.15;62.54;101682.06;5056181;28;1927;-33
2022/02/24 04:49:34;;;;;;;;;;;;;;;16.13;62.39;101680.44;5056122;28;1781;-32
2022/02/24 04:52:01;;;;;;;;;;;;;;;16.10;62.46;101685.00;5055909;28;1981;-33
2022/02/24 04:54:27;;;;;;;;;;;;;;;16.15;62.96;101689.19;5055884;28;1655;-32
2022/02/24 04:56:55;;;;;;;;;;;;;;;16.15;62.42;101707.88;5047038;28;1842;-33
2022/02/24 04:59:21;;;;;;;;;;;;;;;16.20;62.32;101711.13;5056262;28;1087;-32
2022/02/24 05:01:48;;;;;;;;;;;;;;;16.16;61.79;101707.78;5054770;28;1618;-32
2022/02/24 05:04:15;;;;;;;;;;;;;;;16.18;61.26;101715.72;5055167;28;1405;-33
2022/02/24 05:06:41;;;;;;;;;;;;;;;16.15;62.48;101711.41;4355500;28;10000922;-33
2022/02/24 05:09:08;;;;;;;;;;;;;;;16.15;61.83;101727.41;5050177;28;1867;-34
2022/02/24 05:11:35;;;;;;;;;;;;;;;16.14;61.75;101714.19;5050549;28;1986;-33
2022/02/24 05:14:03;;;;;;;;;;;;;;;16.16;62.78;101729.16;5043240;28;1981;-33
2022/02/24 05:16:29;;;;;;;;;;;;;;;16.19;62.21;101734.28;5049968;28;1399;-33
2022/02/24 05:18:56;;;;;;;;;;;;;;;16.19;62.73;101733.44;5050454;28;1946;-33
2022/02/24 05:21:22;;;;;;;;;;;;;;;16.15;61.66;101727.41;5050906;28;1789;-34
2022/02/24 05:23:49;;;;;;;;;;;;;;;16.17;62.56;101732.66;5050885;28;1684;-34
2022/02/24 05:26:15;;;;;;;;;;;;;;;16.15;61.97;101742.56;5051362;28;1652;-34
2022/02/24 05:28:41;;;;;;;;;;;;;;;16.13;62.40;101745.31;5050802;28;1781;-34
2022/02/24 05:31:09;;;;;;;;;;;;;;;16.13;62.47;101736.47;5050585;28;1931;-33
2022/02/24 05:33:36;;;;;;;;;;;;;;;16.12;62.52;101737.44;5050253;28;1934;-33
2022/02/24 05:36:03;;;;;;;;;;;;;;;16.13;61.83;101744.47;5051282;28;1786;-33
2022/02/24 05:38:29;;;;;;;;;;;;;;;16.09;62.15;101746.47;5050816;28;1932;-33
2022/02/24 05:40:57;;;;;;;;;;;;;;;16.13;62.66;101750.66;5050380;28;2070;-34
2022/02/24 05:43:24;;;;;;;;;;;;;;;16.15;62.64;101756.75;5050859;28;1930;-34
2022/02/24 05:45:50;;;;;;;;;;;;;;;16.14;62.69;101760.41;5050917;28;1852;-34
2022/02/24 05:48:18;;;;;;;;;;;;;;;16.14;61.94;101763.06;5051122;28;1942;-33
2022/02/24 05:50:45;;;;;;;;;;;;;;;16.10;61.84;101766.88;5049808;28;1643;-33
2022/02/24 05:53:11;;;;;;;;;;;;;;;16.14;62.33;101770.22;5051291;28;1992;-33
2022/02/24 05:55:37;;;;;;;;;;;;;;;16.10;62.63;101766.88;5049370;28;1915;-33
2022/02/24 05:58:04;;;;;;;;;;;;;;;16.09;62.11;101760.69;5050798;28;1643;-33
2022/02/24 06:00:31;;;;;;;;;;;;;;;16.09;62.25;101776.69;5050550;28;1931;-35
2022/02/24 06:02:58;;;;;;;;;;;;;;;16.11;62.87;101773.91;5050948;28;1735;-34
2022/02/24 06:05:25;;;;;;;;;;;;;;;16.09;63.00;101781.16;5050967;28;1724;-33
2022/02/24 06:07:52;;;;;;;;;;;;;;;16.08;62.70;101774.13;5050101;28;2420;-33
2022/02/24 06:10:18;;;;;;;;;;;;;;;16.10;62.66;101788.22;5050560;28;1741;-33
2022/02/24 06:12:45;;;;;;;;;;;;;;;16.08;61.98;101790.13;5050067;28;1973;-33
2022/02/24 06:15:11;;;;;;;;;;;;;;;16.15;60.75;101802.13;5050543;28;1682;-33
2022/02/24 06:17:38;;;;;;;;;;;;;;;16.14;60.82;101795.09;5050331;28;1923;-33
2022/02/24 06:20:05;;;;;;;;;;;;;;;16.21;61.58;101807.09;5046551;28;1988;-33
2022/02/24 06:22:33;;;;;;;;;;;;;;;16.18;61.64;101801.09;5049663;28;1631;-33
2022/02/24 06:24:59;;;;;;;;;;;;;;;16.23;61.67;101802.53;5051691;28;1445;-33
2022/02/24 06:27:26;;;;;;;;;;;;;;;16.25;61.34;101803.31;5050458;28;1688;-34
2022/02/24 06:29:52;;;;;;;;;;;;;;;16.22;61.57;101814.16;5042326;28;1417;-32
2022/02/24 06:32:19;;;;;;;;;;;;;;;16.20;61.83;101820.56;5044544;28;1524;-33
2022/02/24 06:34:45;;;;;;;;;;;;;;;16.18;61.31;101822.47;5052233;28;1898;-33
2022/02/24 06:37:12;;;;;;;;;;;;;;;16.15;62.27;101831.47;5052185;28;1497;-33
2022/02/24 06:39:40;;;;;;;;;;;;;;;16.15;61.68;101850.16;5052863;28;1847;-33
2022/02/24 06:42:06;;;;;;;;;;;;;;;16.15;61.45;101844.81;5053129;28;1705;-33
2022/02/24 06:44:33;;;;;;;;;;;;;;;16.11;62.45;101848.63;5045016;28;1270;-33
2022/02/24 06:46:59;;;;;;;;;;;;;;;16.12;62.29;101852.19;5053283;28;1654;-33
2022/02/24 06:49:25;;;;;;;;;;;;;;;16.10;62.62;101853.13;5054681;28;1653;-32
2022/02/24 06:51:54;;;;;;;;;;;;;;;16.08;62.67;101856.84;5054787;28;1787;-33
2022/02/24 06:54:21;;;;;;;;;;;;;;;16.10;62.33;101862.94;5054310;28;1975;-32
2022/02/24 06:56:49;;;;;;;;;;;;;;;16.09;61.69;101858.53;5054094;28;1792;-32
2022/02/24 06:59:15;;;;;;;;;;;;;;;16.10;61.32;101862.94;5055023;28;1076;-32
2022/02/24 07:01:42;;;;;;;;;;;;;;;16.09;61.58;101874.53;5054059;28;1918;-32
2022/02/24 07:04:08;;;;;;;;;;;;;;;16.08;62.58;101864.84;5054122;28;1872;-33
2022/02/24 07:06:35;;;;;;;;;;;;;;;16.09;61.85;101866.53;5054523;28;1655;-33
2022/02/24 07:09:01;;;;;;;;;;;;;;;16.11;62.46;101888.66;5055523;28;1086;-33
2022/02/24 07:11:28;;;;;;;;;;;;;;;16.14;62.65;101885.81;5053819;28;1654;-33
2022/02/24 07:13:56;;;;;;;;;;;;;;;16.14;62.55;101891.16;5054344;28;1910;-32
2022/02/24 07:16:22;;;;;;;;;;;;;;;16.13;62.20;101877.91;5053700;28;1724;-33
2022/02/24 07:18:49;;;;;;;;;;;;;;;16.16;62.07;101889.25;5054296;28;1658;-32
2022/02/24 07:21:15;;;;;;;;;;;;;;;16.15;62.33;101900.88;5054830;28;1768;-33
2022/02/24 07:23:42;;;;;;;;;;;;;;;16.11;61.98;101902.00;5054240;28;1131;-32
2022/02/24 07:26:09;;;;;;;;;;;;;;;16.11;62.13;101899.31;5053798;28;1804;-33
2022/02/24 07:28:36;;;;;;;;;;;;;;;16.10;62.46;101894.97;5054034;28;1879;-33
2022/02/24 07:31:04;;;;;;;;;;;;;;;16.09;61.52;101898.56;5054252;28;1807;-33
2022/02/24 07:33:30;;;;;;;;;;;;;;;16.09;62.19;101893.22;5053438;28;1906;-33
2022/02/24 07:35:57;;;;;;;;;;;;;;;16.12;61.99;101887.72;5053509;28;1764;-33
2022/02/24 07:38:23;;;;;;;;;;;;;;;16.14;61.42;101901.84;5053816;28;1644;-35
2022/02/24 07:40:50;;;;;;;;;;;;;;;16.15;61.50;101908.03;5053820;28;1003;-33
2022/02/24 07:43:16;;;;;;;;;;;;;;;16.14;62.40;101917.84;5053022;28;1752;-33
2022/02/24 07:45:43;;;;;;;;;;;;;;;16.17;61.19;101914.13;5053525;28;1957;-33
2022/02/24 07:48:10;;;;;;;;;;;;;;;16.13;62.29;101905.44;5054195;28;1777;-33
2022/02/24 07:50:37;;;;;;;;;;;;;;;16.13;62.43;101905.44;5051396;28;1114;-33
2022/02/24 07:53:03;;;;;;;;;;;;;;;16.15;62.15;101913.34;5053748;28;1977;-33
2022/02/24 07:55:30;;;;;;;;;;;;;;;16.11;62.05;101899.31;5053700;28;1974;-32
2022/02/24 07:57:57;;;;;;;;;;;;;;;16.15;61.05;101902.69;5049492;28;2497;-32
2022/02/24 08:00:23;;;;;;;;;;;;;;;16.13;60.84;101899.25;5053785;28;1588;-35
2022/02/24 08:02:51;;;;;;;;;;;;;;;16.13;62.18;101905.44;5053152;28;1403;-32
2022/02/24 08:05:19;;;;;;;;;;;;;;;16.13;61.89;101900.09;5053916;28;1777;-32
2022/02/24 08:07:45;;;;;;;;;;;;;;;16.11;62.04;101907.34;5053820;28;1931;-33
2022/02/24 08:10:12;;;;;;;;;;;;;;;16.09;61.42;101898.56;5053364;28;1707;-32
2022/02/24 08:12:42;;;;;;;;;;;;;;;16.08;62.37;101897.72;5053621;28;1669;-33
2022/02/24 08:15:10;;;;;;;;;;;;;;;16.10;61.87;101900.28;5053995;28;1909;-33
2022/02/24 08:17:36;;;;;;;;;;;;;;;16.08;61.88;101908.38;5053484;28;1759;-33
2022/02/24 08:20:05;;;;;;;;;;;;;;;16.09;62.46;101914.56;5053350;28;1999;-33
2022/02/24 08:22:33;;;;;;;;;;;;;;;16.09;62.31;101911.91;5052975;28;1790;-33
2022/02/24 08:24:59;;;;;;;;;;;;;;;16.06;62.52;101891.59;5053405;28;1752;-33
2022/02/24 08:27:26;;;;;;;;;;;;;;;16.06;62.34;101906.75;5053934;28;1820;-32
2022/02/24 08:29:52;;;;;;;;;;;;;;;16.06;62.43;101909.44;5053813;28;1080;-33
2022/02/24 08:32:19;;;;;;;;;;;;;;;16.08;61.18;101899.53;5052944;28;1647;-32
2022/02/24 08:34:45;;;;;;;;;;;;;;;16.08;62.25;101900.38;5052718;28;1913;-32
2022/02/24 08:37:12;;;;;;;;;;;;;;;16.09;60.98;101894.09;5053652;28;1403;-33
2022/02/24 08:39:39;;;;;;;;;;;;;;;16.10;61.78;101900.28;5056140;28;1550;-32
2022/02/24 08:42:06;;;;;;;;;;;;;;;16.14;61.33;101906.31;5056524;28;1569;-32
2022/02/24 08:44:33;;;;;;;;;;;;;;;16.13;62.35;101883.22;5048498;28;1061;-33
2022/02/24 08:46:59;;;;;;;;;;;;;;;16.14;61.65;101901.84;5057100;28;1752;-33
2022/02/24 08:49:25;;;;;;;;;;;;;;;16.15;61.72;101898.19;5056504;28;1613;-33
2022/02/24 08:51:52;;;;;;;;;;;;;;;16.12;62.20;101884.19;5057421;28;1844;-33
2022/02/24 08:54:18;;;;;;;;;;;;;;;16.16;61.95;101896.41;5056294;28;1922;-33
2022/02/24 08:56:46;;;;;;;;;;;;;;;16.14;62.13;101885.81;5056484;28;1656;-32
2022/02/24 08:59:13;;;;;;;;;;;;;;;16.15;61.82;101887.53;5057560;28;1151;-33
2022/02/24 09:01:39;;;;;;;;;;;;;;;16.18;62.01;101887.34;5056953;28;1915;-32
2022/02/24 09:04:05;;;;;;;;;;;;;;;16.17;61.30;101880.28;5056127;28;1740;-33
2022/02/24 09:06:32;;;;;;;;;;;;;;;16.19;60.80;101878.38;5047226;28;1701;-32
2022/02/24 09:08:58;;;;;;;;;;;;;;;16.17;61.97;101874.94;5056715;28;1131;-32
2022/02/24 09:11:25;;;;;;;;;;;;;;;16.17;61.96;101876.75;5056587;28;1981;-33
2022/02/24 09:13:52;;;;;;;;;;;;;;;16.20;61.33;101880.13;5056418;28;1984;-33
2022/02/24 09:16:19;;;;;;;;;;;;;;;16.19;61.29;101872.19;5056277;28;1789;-32
2022/02/24 09:18:46;;;;;;;;;;;;;;;16.17;61.26;101869.59;5055586;28;1722;-33
2022/02/24 09:21:12;;;;;;;;;;;;;;;16.22;60.67;101864.03;5056164;28;1831;-33
2022/02/24 09:23:39;;;;;;;;;;;;;;;16.20;60.67;101877.44;5057584;28;1020;-32
2022/02/24 09:26:05;;;;;;;;;;;;;;;16.22;60.94;101867.53;5056131;28;1801;-33
2022/02/24 09:28:32;;;;;;;;;;;;;;;16.24;61.73;101870.97;5055853;28;1792;-32
2022/02/24 09:31:00;;;;;;;;;;;;;;;16.29;60.51;101863.56;5056428;28;1808;-33
2022/02/24 09:33:28;;;;;;;;;;;;;;;16.29;61.18;101854.69;5056025;28;1757;-33
2022/02/24 09:35:54;;;;;;;;;;;;;;;16.33;60.45;101842.03;5055623;28;1782;-33
2022/02/24 09:38:21;;;;;;;;;;;;;;;16.32;60.63;101861.69;5057036;28;1081;-33
2022/02/24 09:40:51;;;;;;;;;;;;;;;16.33;61.81;101847.34;5055359;28;2307;-33
2022/02/24 09:43:18;;;;;;;;;;;;;;;16.34;60.58;101857.09;5056082;28;1806;-32
2022/02/24 09:45:46;;;;;;;;;;;;;;;16.37;61.70;101843.56;5055266;28;1892;-33
2022/02/24 09:48:17;;;;;;;;;;;;;;;16.37;61.35;101838.22;5054255;28;1605;-33
2022/02/24 09:50:48;;;;;;;;;;;;;;;16.38;61.68;101830.13;5055814;28;1662;-35
2022/02/24 09:53:15;;;;;;;;;;;;;;;16.35;60.57;101818.75;5054241;28;1142;-33
2022/02/24 09:55:41;;;;;;;;;;;;;;;16.33;61.59;101810.00;5054446;28;1961;-33
2022/02/24 09:58:08;;;;;;;;;;;;;;;16.35;61.67;101818.75;5055142;28;1962;-33
2022/02/24 10:00:34;;;;;;;;;;;;;;;16.41;61.07;101837.09;5055070;28;1797;-33
2022/02/24 10:03:00;;;;;;;;;;;;;;;16.38;61.51;101813.25;5055439;28;1406;-33
2022/02/24 10:05:28;;;;;;;;;;;;;;;16.35;61.19;101811.59;5054984;28;1852;-33
2022/02/24 10:08:09;;;;;;;;;;;;;;;16.40;61.80;101814.03;5055459;28;1763;-33
2022/02/24 10:10:35;;;;;;;;;;;;;;;16.39;61.92;101820.28;5054793;28;1842;-33
2022/02/24 10:13:03;;;;;;;;;;;;;;;16.38;61.50;101802.56;5055133;28;1772;-33
2022/02/24 10:15:30;;;;;;;;;;;;;;;16.41;62.02;101805.03;5055035;28;1902;-32
2022/02/24 10:18:08;;;;;;;;;;;;;;;16.38;61.20;101810.59;5054636;28;1016;-33
2022/02/24 10:20:40;;;;;;;;;;;;;;;16.38;60.71;101803.44;5053886;28;1023;-33
2022/02/24 10:23:09;;;;;;;;;;;;;;;16.35;61.54;101797.41;5054903;28;1895;-33
2022/02/24 10:25:42;;;;;;;;;;;;;;;16.34;61.12;101796.56;5054442;28;1763;-33
2022/02/24 10:28:27;;;;;;;;;;;;;;;16.33;61.90;101799.31;5051267;28;1984;-33
2022/02/24 10:30:54;;;;;;;;;;;;;;;16.32;60.93;101786.94;5039220;28;2001;-33
2022/02/24 10:33:24;;;;;;;;;;;;;;;16.28;62.13;101787.09;5050996;28;1595;-33
2022/02/24 10:35:52;;;;;;;;;;;;;;;16.31;60.63;101788.72;5055314;28;1890;-34
2022/02/24 10:38:19;;;;;;;;;;;;;;;16.29;61.68;101786.16;5055687;28;1252;-32
2022/02/24 10:40:46;;;;;;;;;;;;;;;16.28;61.84;101784.44;5053797;28;1917;-33
2022/02/24 10:43:17;;;;;;;;;;;;;;;16.25;61.97;101776.63;5054998;28;1950;-33
2022/02/24 10:45:45;;;;;;;;;;;;;;;16.24;62.15;101780.25;5054237;28;1918;-33
2022/02/24 10:48:12;;;;;;;;;;;;;;;16.25;60.84;101770.41;5055500;28;1728;-34
2022/02/24 10:50:45;;;;;;;;;;;;;;;16.25;60.70;101773.09;5055057;28;1075;-32
2022/02/24 10:53:13;;;;;;;;;;;;;;;16.26;60.91;101770.31;5054259;28;1150;-33
2022/02/24 10:55:52;;;;;;;;;;;;;;;16.23;61.69;101778.50;5053003;28;1909;-33
2022/02/24 10:58:19;;;;;;;;;;;;;;;16.23;61.47;101766.97;5053485;28;1977;-33
2022/02/24 11:00:45;;;;;;;;;;;;;;;16.22;61.57;101766.13;5053953;28;1676;-33
2022/02/24 11:03:12;;;;;;;;;;;;;;;16.22;61.39;101766.13;5053778;28;1587;-34
2022/02/24 11:05:39;;;;;;;;;;;;;;;16.21;61.91;101766.22;5057574;28;1012;-33
2022/02/24 11:08:06;;;;;;;;;;;;;;;16.21;62.36;101764.41;5056130;28;1949;-33
2022/02/24 11:10:35;;;;;;;;;;;;;;;16.17;60.91;101768.19;5053428;28;1838;-33
2022/02/24 11:13:01;;;;;;;;;;;;;;;16.19;60.72;101766.31;5054039;28;1594;-33
2022/02/24 11:15:28;;;;;;;;;;;;;;;16.19;60.92;101752.97;5054190;28;1902;-33
2022/02/24 11:17:54;;;;;;;;;;;;;;;16.21;61.28;101756.38;5054521;28;1104;-32
2022/02/24 11:20:21;;;;;;;;;;;;;;;16.24;61.72;101756.22;5053845;28;1883;-33
2022/02/24 11:22:48;;;;;;;;;;;;;;;16.28;61.02;101755.06;5052946;28;1955;-33
2022/02/24 11:25:15;;;;;;;;;;;;;;;16.35;60.52;101754.69;5052882;28;2061;-33
2022/02/24 11:27:47;;;;;;;;;;;;;;;16.34;61.14;101753.00;5052869;28;1822;-32
2022/02/24 11:30:17;;;;;;;;;;;;;;;16.41;61.14;101740.97;5049426;28;2035;-33
2022/02/24 11:32:45;;;;;;;;;;;;;;;16.44;60.31;101738.13;5052758;28;1607;-33
2022/02/24 11:35:17;;;;;;;;;;;;;;;16.49;61.08;101747.56;5053415;28;1906;-34
2022/02/24 11:37:45;;;;;;;;;;;;;;;16.48;60.07;101728.97;5053294;28;1954;-33
2022/02/24 11:40:13;;;;;;;;;;;;;;;16.51;60.22;101755.47;5052658;28;1600;-33
2022/02/24 11:42:40;;;;;;;;;;;;;;;16.48;60.12;101739.66;5053845;28;1604;-33
2022/02/24 11:45:25;;;;;;;;;;;;;;;16.43;61.46;101744.41;5053624;28;1148;-33
2022/02/24 11:48:00;;;;;;;;;;;;;;;16.40;60.51;101726.78;5053872;28;992;-33
2022/02/24 11:50:36;;;;;;;;;;;;;;;16.37;61.37;101731.44;5054185;28;2057;-33
2022/02/24 11:53:05;;;;;;;;;;;;;;;16.41;61.85;101732.97;5053720;28;1837;-33
2022/02/24 11:55:59;;;;;;;;;;;;;;;16.35;60.38;101720.84;5052721;28;1898;-33
2022/02/24 11:58:32;;;;;;;;;;;;;;;16.30;60.93;101715.81;5053930;28;1961;-33
2022/02/24 12:01:25;;;;;;;;;;;;;;;16.33;61.01;101720.09;5053685;28;1943;-33
2022/02/24 12:03:55;;;;;;;;;;;;;;;16.32;61.60;101713.03;5020025;28;1730;-33
2022/02/24 12:06:22;;;;;;;;;;;;;;;16.29;61.83;101724.78;5055984;28;1858;-33
2022/02/24 12:09:08;;;;;;;;;;;;;;;16.26;61.92;101714.28;5058270;28;1054;-32
2022/02/24 12:11:38;;;;;;;;;;;;;;;16.26;61.62;101713.44;5056439;28;1621;-33
2022/02/24 12:14:23;;;;;;;;;;;;;;;16.26;62.08;101703.59;5058392;28;1675;-33
2022/02/24 12:17:05;;;;;;;;;;;;;;;16.24;62.11;101713.53;5049440;28;1939;-33
2022/02/24 12:19:37;;;;;;;;;;;;;;;16.26;61.14;101718.78;5057476;28;1730;-32
2022/02/24 12:22:12;;;;;;;;;;;;;;;16.22;61.52;101712.75;5060562;28;1643;-32
2022/02/24 12:24:39;;;;;;;;;;;;;;;16.23;61.52;101714.44;5058413;28;1617;-33
2022/02/24 12:27:20;;;;;;;;;;;;;;;16.24;62.00;101694.84;5056794;28;1563;-33
2022/02/24 12:29:46;;;;;;;;;;;;;;;16.25;60.90;101695.69;5049165;28;1883;-32
2022/02/24 12:32:15;;;;;;;;;;;;;;;16.23;60.75;101693.09;5057766;28;1717;-32
2022/02/24 12:34:46;;;;;;;;;;;;;;;16.24;61.82;101683.31;5057110;28;1902;-33
2022/02/24 12:37:13;;;;;;;;;;;;;;;16.22;61.06;101686.06;5056870;28;1594;-33
2022/02/24 12:39:40;;;;;;;;;;;;;;;16.23;60.70;101693.09;5056743;28;1840;-33
2022/02/24 12:42:08;;;;;;;;;;;;;;;16.24;60.87;101684.16;5057080;28;1581;-33
2022/02/24 12:44:35;;;;;;;;;;;;;;;16.24;61.46;101686.81;5036708;28;1080;-33
2022/02/24 12:47:02;;;;;;;;;;;;;;;16.19;61.46;101686.25;5050339;28;2145;-33
2022/02/24 12:49:28;;;;;;;;;;;;;;;16.21;61.02;101694.16;5056469;28;1855;-33